Terminal Aerodrome Forecast
Issued by NWS

Current Version | Previous Version | Text Only | Print | Product List | Glossary On
Versions: 1 2 3 4 5 6 7 8 9 10 11 12 13 14 15
000
FTAK31 PAJN 172300
TAFASI
TAF
PASI 172320Z 1800/1824 24005KT P6SM SCT030 BKN180
     FM180300 13007KT P6SM FEW040 OVC150
     FM181000 11011KT P6SM -RA SCT025 BKN045 OVC060
     FM181600 12018G25KT 6SM -RA BR SCT025 OVC040 WS020/14040KT
     FM182200 14018G28KT 5SM -RA BR BKN025 OVC040=

USA.gov is the U.S. government's official web portal to all federal, state and local government web resources and services.